createdAt,value
2019-03-31T00:02:06.586Z,37.70
2019-03-31T00:04:34.910Z,37.73
2019-03-31T00:07:03.390Z,38.23
2019-03-31T00:09:31.754Z,38.20
2019-03-31T00:12:00.147Z,36.23
2019-03-31T00:14:28.501Z,37.13
2019-03-31T00:16:56.862Z,38.23
2019-03-31T00:19:25.620Z,35.97
2019-03-31T00:21:53.934Z,35.27
2019-03-31T00:24:22.301Z,36.00
2019-03-31T00:26:50.745Z,36.83
2019-03-31T00:29:19.119Z,33.40
2019-03-31T00:31:47.896Z,33.47
2019-03-31T00:34:16.217Z,34.50
2019-03-31T00:36:44.556Z,31.40
2019-03-31T00:39:12.913Z,30.70
2019-03-31T00:41:41.323Z,28.60
2019-03-31T00:44:09.717Z,27.93
2019-03-31T00:46:38.204Z,29.03
2019-03-31T00:49:06.562Z,28.67
2019-03-31T00:51:34.872Z,28.33
2019-03-31T00:54:03.277Z,27.93
2019-03-31T00:56:31.633Z,22.43
2019-03-31T00:58:59.982Z,19.70
2019-03-31T01:01:46.258Z,17.97
2019-03-31T01:04:16.177Z,18.30
2019-03-31T01:06:45.104Z,16.67
2019-03-31T01:09:28.225Z,16.77
2019-03-31T01:11:56.551Z,14.90
2019-03-31T01:14:24.942Z,16.40
2019-03-31T01:16:53.896Z,14.67
2019-03-31T01:19:22.750Z,14.53
2019-03-31T01:21:52.146Z,15.73
2019-03-31T01:24:20.611Z,14.50
2019-03-31T01:26:48.936Z,11.47
2019-03-31T01:29:17.952Z,11.87
2019-03-31T01:31:50.594Z,12.37
2019-03-31T01:34:16.279Z,11.70
2019-03-31T01:36:44.595Z,11.43
2019-03-31T01:39:12.947Z,11.20
2019-03-31T01:41:41.278Z,10.83
2019-03-31T01:44:09.695Z,10.73
2019-03-31T01:46:37.967Z,10.20
2019-03-31T01:49:09.049Z,10.20
2019-03-31T01:51:37.426Z,10.13
2019-03-31T01:54:05.882Z,11.40
2019-03-31T01:56:34.274Z,11.43
2019-03-31T01:59:02.605Z,11.13
2019-03-31T02:01:31.147Z,10.63
2019-03-31T02:03:59.483Z,11.23
2019-03-31T02:06:36.965Z,10.90
2019-03-31T02:09:06.454Z,11.87
2019-03-31T02:11:52.848Z,11.63
2019-03-31T02:14:21.205Z,10.87
2019-03-31T02:16:49.586Z,10.67
2019-03-31T02:19:17.897Z,10.30
2019-03-31T02:21:46.205Z,10.13
2019-03-31T02:24:14.519Z,10.40
2019-03-31T02:26:42.894Z,9.93
2019-03-31T02:29:11.207Z,9.87
2019-03-31T02:31:39.562Z,9.57
2019-03-31T02:34:07.886Z,8.63
2019-03-31T02:36:36.226Z,9.70
2019-03-31T02:39:05.641Z,9.63
2019-03-31T02:41:34.048Z,9.70
2019-03-31T02:44:02.488Z,9.00
2019-03-31T02:46:30.850Z,8.67
2019-03-31T02:48:59.171Z,9.13
2019-03-31T02:51:27.710Z,7.97
2019-03-31T02:53:56.022Z,9.00
2019-03-31T02:56:24.699Z,8.23
2019-03-31T03:02:14.681Z,9.17
2019-03-31T03:04:43.291Z,8.73
2019-03-31T03:07:12.850Z,8.27
2019-03-31T03:09:42.001Z,9.43
2019-03-31T03:12:10.319Z,8.50
2019-03-31T03:14:38.720Z,9.17
2019-03-31T03:17:07.138Z,8.70
2019-03-31T03:19:35.464Z,7.97
2019-03-31T03:22:03.802Z,7.30
2019-03-31T03:24:32.116Z,6.97
2019-03-31T03:27:00.445Z,6.93
2019-03-31T03:29:28.763Z,7.03
2019-03-31T03:31:57.309Z,7.10
2019-03-31T03:34:25.630Z,6.73
2019-03-31T03:36:53.976Z,6.30
2019-03-31T03:39:22.292Z,6.80
2019-03-31T03:41:50.628Z,6.77
2019-03-31T03:44:18.944Z,6.17
2019-03-31T03:46:47.247Z,6.50
2019-03-31T03:49:15.757Z,6.17
2019-03-31T03:51:44.296Z,5.97
2019-03-31T03:54:12.598Z,6.30
2019-03-31T03:56:41.163Z,5.33
2019-03-31T03:59:09.895Z,5.47
2019-03-31T04:01:38.212Z,4.97
2019-03-31T04:04:06.557Z,5.37
2019-03-31T04:06:34.876Z,4.80
2019-03-31T04:09:04.175Z,4.97
2019-03-31T04:11:32.668Z,4.70
2019-03-31T04:14:01.121Z,5.20
2019-03-31T04:16:29.443Z,3.87
2019-03-31T04:18:57.787Z,3.90
2019-03-31T04:21:26.377Z,3.83
2019-03-31T04:23:54.787Z,3.67
2019-03-31T04:26:24.154Z,3.57
2019-03-31T04:28:52.486Z,3.63
2019-03-31T04:31:20.733Z,3.57
2019-03-31T04:33:52.218Z,3.87
2019-03-31T04:36:19.167Z,2.93
2019-03-31T04:38:47.786Z,3.07
2019-03-31T04:41:16.587Z,2.90
2019-03-31T04:43:44.888Z,3.10
2019-03-31T04:46:13.216Z,2.60
2019-03-31T04:48:41.581Z,2.53
2019-03-31T04:51:09.934Z,2.73
2019-03-31T04:53:38.300Z,2.13
2019-03-31T04:56:06.620Z,2.40
2019-03-31T04:58:34.954Z,2.03
2019-03-31T05:01:03.290Z,2.30
2019-03-31T05:03:31.628Z,2.00
2019-03-31T05:06:00.002Z,2.20
2019-03-31T05:08:28.277Z,2.07
2019-03-31T05:10:56.623Z,2.67
2019-03-31T05:13:24.953Z,1.93
2019-03-31T05:15:53.303Z,2.23
2019-03-31T05:18:21.633Z,2.10
2019-03-31T05:20:49.983Z,1.80
2019-03-31T05:23:18.264Z,2.00
2019-03-31T05:25:46.618Z,1.83
2019-03-31T05:28:14.930Z,2.33
2019-03-31T05:30:43.226Z,2.23
2019-03-31T05:33:11.560Z,2.07
2019-03-31T05:35:40.104Z,2.13
2019-03-31T05:38:08.452Z,2.10
2019-03-31T05:40:36.861Z,2.10
2019-03-31T05:43:05.239Z,2.00
2019-03-31T05:45:33.591Z,2.60
2019-03-31T05:48:02.314Z,2.33
2019-03-31T05:50:30.679Z,2.40
2019-03-31T05:53:19.752Z,2.50
2019-03-31T05:55:48.106Z,2.17
2019-03-31T05:58:16.444Z,2.23
2019-03-31T06:00:49.783Z,2.30
2019-03-31T06:03:18.188Z,2.60
2019-03-31T06:05:46.492Z,2.87
2019-03-31T06:08:14.774Z,3.83
2019-03-31T06:10:43.124Z,3.23
2019-03-31T06:13:11.432Z,3.03
2019-03-31T06:15:39.746Z,3.50
2019-03-31T06:18:08.092Z,2.77
2019-03-31T06:20:36.430Z,3.20
2019-03-31T06:23:04.788Z,2.60
2019-03-31T06:25:33.101Z,2.47
2019-03-31T06:28:01.435Z,2.63
2019-03-31T06:30:29.789Z,3.23
2019-03-31T06:32:58.091Z,2.13
2019-03-31T06:35:26.427Z,2.33
2019-03-31T06:37:54.749Z,2.60
2019-03-31T06:40:23.083Z,2.90
2019-03-31T06:42:51.609Z,2.90
2019-03-31T06:45:19.906Z,2.33
2019-03-31T06:47:48.604Z,3.10
2019-03-31T06:50:16.954Z,2.57
2019-03-31T06:52:45.338Z,3.00
2019-03-31T06:55:13.656Z,3.07
2019-03-31T06:57:42.538Z,2.70
2019-03-31T07:00:10.874Z,2.57
2019-03-31T07:02:39.288Z,3.20
2019-03-31T07:05:08.259Z,2.73
2019-03-31T07:07:36.654Z,3.57
2019-03-31T07:10:05.369Z,2.80
2019-03-31T07:12:34.165Z,3.23
2019-03-31T07:15:02.491Z,3.63
2019-03-31T07:17:30.802Z,3.67
2019-03-31T07:19:59.211Z,3.33
2019-03-31T07:22:27.910Z,3.43
2019-03-31T07:24:56.209Z,3.10
2019-03-31T07:33:43.032Z,2.07
2019-03-31T07:39:21.044Z,3.50
2019-03-31T07:41:49.649Z,3.07
2019-03-31T07:44:17.978Z,3.20
2019-03-31T07:46:46.391Z,3.40
2019-03-31T07:49:14.743Z,3.60
2019-03-31T07:51:43.184Z,3.90
2019-03-31T07:54:12.013Z,3.50
2019-03-31T07:56:40.804Z,3.30
2019-03-31T07:59:09.156Z,3.27
2019-03-31T08:01:37.522Z,3.00
2019-03-31T08:04:05.891Z,2.87
2019-03-31T08:06:34.246Z,4.03
2019-03-31T08:12:11.587Z,2.83
2019-03-31T08:14:39.980Z,2.90
2019-03-31T08:17:08.331Z,2.70
2019-03-31T08:19:36.679Z,3.07
2019-03-31T08:22:04.973Z,2.93
2019-03-31T08:24:43.063Z,2.50
2019-03-31T08:27:12.317Z,2.53
2019-03-31T08:29:40.727Z,3.40
2019-03-31T08:32:08.994Z,2.70
2019-03-31T08:34:37.651Z,2.20
2019-03-31T08:37:05.958Z,2.60
2019-03-31T08:39:34.294Z,2.10
2019-03-31T08:42:02.733Z,2.10
2019-03-31T08:44:31.260Z,1.63
2019-03-31T08:46:59.642Z,1.73
2019-03-31T08:49:28.210Z,1.33
2019-03-31T08:51:56.872Z,2.10
2019-03-31T08:54:25.122Z,2.07
2019-03-31T08:56:53.506Z,2.03
2019-03-31T08:59:21.849Z,1.93
2019-03-31T09:01:50.254Z,2.10
2019-03-31T09:04:18.594Z,2.83
2019-03-31T09:06:46.909Z,1.63
2019-03-31T09:09:15.201Z,1.93
2019-03-31T09:11:43.528Z,1.77
2019-03-31T09:14:11.900Z,2.00
2019-03-31T09:16:40.219Z,1.90
2019-03-31T09:19:08.600Z,1.80
2019-03-31T09:21:36.982Z,1.90
2019-03-31T09:24:05.838Z,2.23
2019-03-31T09:26:34.225Z,1.90
2019-03-31T09:29:02.532Z,2.00
2019-03-31T09:31:34.203Z,1.80
2019-03-31T09:34:02.964Z,1.70
2019-03-31T09:36:31.387Z,1.77
2019-03-31T09:39:02.274Z,1.40
2019-03-31T09:41:30.595Z,1.43
2019-03-31T09:43:59.946Z,2.00
2019-03-31T09:46:28.275Z,1.63
2019-03-31T09:48:56.725Z,1.87
2019-03-31T09:51:26.480Z,2.23
2019-03-31T09:53:54.809Z,1.33
2019-03-31T09:56:23.163Z,1.63
2019-03-31T09:58:51.506Z,1.60
2019-03-31T10:01:19.822Z,1.43
2019-03-31T10:03:48.140Z,1.40
2019-03-31T10:06:29.695Z,2.00
2019-03-31T10:08:47.274Z,1.80
2019-03-31T10:11:15.616Z,1.80
2019-03-31T10:13:43.966Z,2.43
2019-03-31T10:16:12.345Z,2.07
2019-03-31T10:18:40.677Z,2.27
2019-03-31T10:21:09.075Z,1.90
2019-03-31T10:23:37.376Z,1.87
2019-03-31T10:26:05.714Z,2.33
2019-03-31T10:28:34.043Z,2.40
2019-03-31T10:31:02.427Z,2.40
2019-03-31T10:33:30.745Z,1.67
2019-03-31T10:35:59.110Z,1.90
2019-03-31T10:38:27.493Z,2.13
2019-03-31T10:40:55.829Z,2.00
2019-03-31T10:43:25.081Z,2.20
2019-03-31T10:45:53.435Z,2.77
2019-03-31T10:48:21.759Z,3.30
2019-03-31T10:50:50.150Z,3.17
2019-03-31T10:53:18.520Z,2.47
2019-03-31T10:55:46.869Z,2.73
2019-03-31T10:58:15.199Z,2.60
2019-03-31T11:00:44.968Z,2.33
2019-03-31T11:03:13.456Z,2.43
2019-03-31T11:05:41.892Z,2.93
2019-03-31T11:08:10.311Z,2.57
2019-03-31T11:10:38.615Z,3.27
2019-03-31T11:13:07.069Z,3.20
2019-03-31T11:15:35.407Z,2.27
2019-03-31T11:18:03.865Z,2.53
2019-03-31T11:20:32.592Z,2.13
2019-03-31T11:23:07.676Z,2.07
2019-03-31T11:25:36.298Z,2.57
2019-03-31T11:28:04.777Z,2.13
2019-03-31T11:30:33.167Z,2.27
2019-03-31T11:33:01.709Z,2.33
2019-03-31T11:38:39.446Z,2.20
2019-03-31T11:41:08.217Z,2.43
2019-03-31T11:43:36.996Z,2.07
2019-03-31T11:46:05.887Z,2.57
2019-03-31T11:48:34.290Z,1.90
2019-03-31T11:51:02.666Z,2.30
2019-03-31T11:53:31.034Z,2.70
2019-03-31T11:55:59.365Z,2.33
2019-03-31T11:58:32.064Z,2.70
2019-03-31T12:00:58.759Z,2.30
2019-03-31T12:03:30.652Z,3.20
2019-03-31T12:05:57.452Z,2.13
2019-03-31T12:08:25.759Z,12.37
2019-03-31T12:10:54.296Z,10.27
2019-03-31T12:13:22.663Z,5.90
2019-03-31T12:15:51.088Z,2.77
2019-03-31T12:18:19.463Z,2.97
2019-03-31T12:20:47.818Z,4.40
2019-03-31T12:23:16.247Z,2.77
2019-03-31T12:25:44.658Z,5.03
2019-03-31T12:28:13.291Z,2.27
2019-03-31T12:30:42.946Z,2.37
2019-03-31T12:33:11.288Z,2.23
2019-03-31T12:35:39.627Z,2.00
2019-03-31T12:38:08.023Z,2.43
2019-03-31T12:40:36.555Z,2.30
2019-03-31T12:43:05.053Z,2.40
2019-03-31T12:45:33.466Z,1.87
2019-03-31T12:48:02.090Z,2.03
2019-03-31T12:50:30.471Z,2.47
2019-03-31T12:52:59.286Z,1.97
2019-03-31T12:55:27.654Z,2.27
2019-03-31T12:57:56.040Z,1.60
2019-03-31T13:00:24.387Z,2.30
2019-03-31T13:02:52.731Z,2.60
2019-03-31T13:05:21.137Z,2.87
2019-03-31T13:07:56.211Z,2.27
2019-03-31T13:10:19.542Z,2.77
2019-03-31T13:12:47.931Z,2.50
2019-03-31T13:15:16.338Z,2.70
2019-03-31T13:17:44.748Z,2.53
2019-03-31T13:20:13.744Z,2.70
2019-03-31T13:22:45.648Z,2.13
2019-03-31T13:25:12.222Z,2.20
2019-03-31T13:27:40.550Z,2.17
2019-03-31T13:30:09.234Z,2.53
2019-03-31T13:32:37.597Z,2.77
2019-03-31T13:35:08.433Z,2.80
2019-03-31T13:37:38.216Z,2.50
2019-03-31T13:40:07.429Z,3.07
2019-03-31T13:42:35.924Z,3.00
2019-03-31T13:45:04.621Z,1.87
2019-03-31T13:47:33.258Z,2.63
2019-03-31T13:50:01.686Z,1.90
2019-03-31T13:52:30.038Z,2.40
2019-03-31T13:54:58.380Z,2.07
2019-03-31T13:57:27.902Z,2.30
2019-03-31T13:59:56.858Z,1.93
2019-03-31T14:02:26.113Z,1.90
2019-03-31T14:04:54.454Z,2.97
2019-03-31T14:07:22.827Z,2.27
2019-03-31T14:09:51.387Z,2.13
2019-03-31T14:12:29.948Z,2.00
2019-03-31T14:15:17.922Z,2.53
2019-03-31T14:17:32.856Z,2.90
2019-03-31T14:20:49.137Z,2.30
2019-03-31T14:23:29.687Z,2.40
2019-03-31T14:25:58.201Z,2.10
2019-03-31T14:28:26.672Z,1.93
2019-03-31T14:31:18.660Z,2.20
2019-03-31T14:33:47.210Z,2.97
2019-03-31T14:36:26.790Z,2.40
2019-03-31T14:38:55.326Z,2.57
2019-03-31T14:41:23.892Z,1.87
2019-03-31T14:43:52.619Z,2.57
2019-03-31T14:46:21.050Z,2.53
2019-03-31T14:48:49.420Z,2.73
2019-03-31T14:51:18.167Z,4.40
2019-03-31T14:54:36.878Z,2.90
2019-03-31T14:57:05.266Z,2.50
2019-03-31T14:59:33.575Z,2.37
2019-03-31T15:02:01.913Z,2.50
2019-03-31T15:04:30.287Z,2.30
2019-03-31T15:06:58.654Z,2.53
2019-03-31T15:09:27.086Z,2.60
2019-03-31T15:11:57.445Z,2.00
2019-03-31T15:14:25.807Z,2.20
2019-03-31T15:16:55.409Z,2.53
2019-03-31T15:19:23.731Z,1.80
2019-03-31T15:21:52.075Z,1.87
2019-03-31T15:24:20.797Z,3.07
2019-03-31T15:26:49.161Z,2.93
2019-03-31T15:29:17.504Z,3.17
2019-03-31T15:31:45.820Z,2.40
2019-03-31T15:34:14.200Z,2.33
2019-03-31T15:36:42.619Z,3.00
2019-03-31T15:39:11.111Z,4.90
2019-03-31T15:41:39.763Z,3.03
2019-03-31T15:44:44.477Z,2.63
2019-03-31T15:47:16.077Z,3.27
2019-03-31T15:50:03.552Z,2.30
2019-03-31T15:52:33.572Z,2.50
2019-03-31T15:55:01.927Z,2.40
2019-03-31T15:57:30.521Z,2.90
2019-03-31T16:00:00.623Z,2.40
2019-03-31T16:02:42.766Z,1.80
2019-03-31T16:05:12.672Z,1.70
2019-03-31T16:07:40.775Z,2.20
2019-03-31T16:10:20.946Z,2.10
2019-03-31T16:12:49.158Z,2.43
2019-03-31T16:15:17.264Z,2.33
2019-03-31T16:17:45.576Z,2.40
2019-03-31T16:20:13.804Z,2.17
2019-03-31T16:22:42.052Z,1.93
2019-03-31T16:25:34.987Z,2.00
2019-03-31T16:28:11.699Z,3.67
2019-03-31T16:30:38.554Z,3.17
2019-03-31T16:33:09.593Z,7.03
2019-03-31T16:35:37.722Z,3.90
2019-03-31T16:38:06.363Z,2.23
2019-03-31T16:40:34.580Z,1.83
2019-03-31T16:43:02.687Z,2.90
2019-03-31T16:45:30.857Z,2.80
2019-03-31T16:47:59.248Z,2.67
2019-03-31T16:50:33.583Z,2.83
2019-03-31T16:53:14.671Z,2.60
2019-03-31T16:55:43.053Z,2.80
2019-03-31T16:58:13.802Z,2.50
2019-03-31T17:00:42.057Z,3.17
2019-03-31T17:03:10.254Z,2.63
2019-03-31T17:05:38.424Z,2.80
2019-03-31T17:08:06.612Z,2.00
2019-03-31T17:10:34.749Z,2.57
2019-03-31T17:13:03.496Z,1.73
2019-03-31T17:15:33.272Z,2.77
2019-03-31T17:18:01.610Z,2.53
2019-03-31T17:20:30.209Z,2.00
2019-03-31T17:22:58.580Z,2.30
2019-03-31T17:25:32.975Z,2.13
2019-03-31T17:28:01.304Z,2.03
2019-03-31T17:30:29.364Z,2.20
2019-03-31T17:32:57.720Z,2.30
2019-03-31T17:35:25.902Z,3.43
2019-03-31T17:37:54.202Z,2.13
2019-03-31T17:40:22.258Z,2.67
2019-03-31T17:42:50.407Z,2.20
2019-03-31T17:45:18.880Z,2.47
2019-03-31T17:47:46.950Z,1.90
2019-03-31T17:50:36.876Z,3.23
2019-03-31T17:53:06.326Z,1.93
2019-03-31T17:55:34.422Z,3.87
2019-03-31T17:58:02.647Z,3.10
2019-03-31T18:00:30.776Z,3.50
2019-03-31T18:02:58.945Z,2.13
2019-03-31T18:05:32.847Z,2.70
2019-03-31T18:08:03.726Z,2.80
2019-03-31T18:10:31.990Z,3.10
2019-03-31T18:13:00.207Z,2.77
2019-03-31T18:15:31.472Z,2.57
2019-03-31T18:17:59.674Z,2.20
2019-03-31T18:20:28.139Z,1.80
2019-03-31T18:22:56.256Z,1.97
2019-03-31T18:25:24.321Z,1.83
2019-03-31T18:27:52.571Z,2.13
2019-03-31T18:30:21.961Z,2.27
2019-03-31T18:32:50.371Z,2.50
2019-03-31T18:35:18.755Z,2.97
2019-03-31T18:37:46.913Z,2.83
2019-03-31T18:40:15.136Z,3.00
2019-03-31T18:42:43.274Z,2.93
2019-03-31T18:45:11.564Z,2.40
2019-03-31T18:47:41.080Z,2.40
2019-03-31T18:50:09.365Z,2.77
2019-03-31T18:52:37.439Z,4.73
2019-03-31T18:55:21.493Z,4.37
2019-03-31T18:58:14.763Z,2.77
2019-03-31T19:00:51.607Z,3.50
2019-03-31T19:03:38.592Z,3.77
2019-03-31T19:06:25.118Z,3.47
2019-03-31T19:09:18.215Z,3.30
2019-03-31T19:12:04.268Z,4.43
2019-03-31T19:14:58.020Z,3.63
2019-03-31T19:17:53.823Z,4.20
2019-03-31T19:20:40.011Z,3.17
2019-03-31T19:23:26.620Z,2.67
2019-03-31T19:26:21.026Z,3.23
2019-03-31T19:29:06.890Z,3.37
2019-03-31T19:31:53.277Z,2.73
2019-03-31T19:37:49.500Z,3.17
2019-03-31T19:40:41.432Z,2.33
2019-03-31T19:43:29.218Z,2.40
2019-03-31T19:46:29.994Z,2.77
2019-03-31T19:49:26.492Z,2.70
2019-03-31T19:52:12.797Z,2.47
2019-03-31T19:54:59.209Z,3.03
2019-03-31T19:57:51.227Z,2.67
2019-03-31T20:00:37.594Z,2.60
2019-03-31T20:03:25.217Z,2.50
2019-03-31T20:06:18.766Z,2.33
2019-03-31T20:08:56.319Z,2.43
2019-03-31T20:14:25.775Z,2.33
2019-03-31T20:17:06.558Z,2.00
2019-03-31T20:19:56.791Z,2.87
2019-03-31T20:22:47.480Z,2.03
2019-03-31T20:25:33.968Z,2.60
2019-03-31T20:28:10.836Z,2.73
2019-03-31T20:30:45.426Z,2.27
2019-03-31T20:33:35.958Z,2.73
2019-03-31T20:36:29.024Z,2.23
2019-03-31T20:39:24.219Z,2.37
2019-03-31T20:42:25.123Z,2.43
2019-03-31T20:45:17.375Z,2.33
2019-03-31T20:47:47.138Z,2.17
2019-03-31T20:50:15.939Z,2.17
2019-03-31T21:15:38.811Z,2.17
2019-03-31T21:18:08.740Z,2.60
2019-03-31T21:20:37.514Z,2.73
2019-03-31T21:23:06.243Z,1.93
2019-03-31T21:25:34.644Z,2.43
2019-03-31T21:28:03.124Z,2.10
2019-03-31T21:30:31.352Z,2.80
2019-03-31T21:32:59.640Z,2.43
2019-03-31T21:35:27.721Z,2.87
2019-03-31T21:37:55.896Z,2.40
2019-03-31T21:40:24.807Z,2.33
2019-03-31T21:42:52.892Z,2.60
2019-03-31T21:45:21.478Z,2.33
2019-03-31T21:47:50.513Z,2.67
2019-03-31T21:50:19.182Z,2.50
2019-03-31T21:52:47.372Z,2.50
2019-03-31T21:55:16.383Z,2.60
2019-03-31T21:57:44.527Z,2.13
2019-03-31T22:00:13.002Z,2.40
2019-03-31T22:02:41.064Z,2.20
2019-03-31T22:05:09.480Z,2.27
2019-03-31T22:07:37.635Z,2.03
2019-03-31T22:10:05.935Z,2.87
2019-03-31T22:12:34.071Z,2.67
2019-03-31T22:15:02.212Z,2.60
2019-03-31T22:17:30.613Z,3.03
2019-03-31T22:19:58.668Z,2.77
2019-03-31T22:22:26.761Z,2.37
2019-03-31T22:24:54.727Z,2.10
2019-03-31T22:27:22.901Z,2.33
2019-03-31T22:29:51.017Z,2.97
2019-03-31T22:32:19.254Z,2.17
2019-03-31T22:34:47.322Z,2.07
2019-03-31T22:37:15.734Z,2.27
2019-03-31T22:39:43.785Z,2.80
2019-03-31T22:42:11.889Z,2.37
2019-03-31T22:44:40.020Z,2.10
2019-03-31T22:47:08.298Z,2.30
2019-03-31T22:49:36.753Z,2.20
2019-03-31T22:52:05.197Z,2.30
2019-03-31T22:54:33.616Z,2.60
2019-03-31T22:57:01.951Z,2.50
2019-03-31T22:59:30.036Z,2.23
2019-03-31T23:01:58.246Z,1.93
2019-03-31T23:04:26.897Z,1.93
2019-03-31T23:06:55.019Z,2.03
2019-03-31T23:09:23.128Z,2.37
2019-03-31T23:11:51.373Z,2.47
2019-03-31T23:14:19.441Z,2.13
2019-03-31T23:16:47.518Z,2.53
2019-03-31T23:19:16.089Z,1.83
2019-03-31T23:21:44.188Z,2.60
2019-03-31T23:24:12.388Z,1.93
2019-03-31T23:26:40.482Z,2.20
2019-03-31T23:29:08.568Z,2.23
2019-03-31T23:31:36.638Z,1.97
2019-03-31T23:34:04.781Z,1.77
2019-03-31T23:36:32.870Z,1.67
2019-03-31T23:39:00.974Z,1.67
2019-03-31T23:41:29.160Z,1.70
2019-03-31T23:43:57.352Z,1.70
2019-03-31T23:46:25.413Z,2.33
2019-03-31T23:48:53.487Z,1.90
2019-03-31T23:51:21.660Z,1.70
2019-03-31T23:53:49.700Z,1.83
2019-03-31T23:56:17.889Z,1.90
2019-03-31T23:58:46.493Z,1.77
